Time;durP1;ratioP1;P1;durP2;ratioP2;P2;SDS_P1;SDS_P2;PMS_P1;PMS_P2;Temp;Humidity;BMP_temperature;BMP_pressure;BME280_temperature;BME280_humidity;BME280_pressure;Samples;Min_cycle;Max_cycle;Signal;HPM_P1;HPM_P2
2022/05/04 00:01:12;;;;;;;5.70;5.25;;;;;;;29.02;73.38;100775.84;5028438;28;66597;-38
2022/05/04 00:03:42;;;;;;;5.78;5.38;;;;;;;29.04;73.58;100783.78;5034377;28;70522;-38
2022/05/04 00:06:12;;;;;;;5.70;5.30;;;;;;;29.03;73.91;100795.59;5033342;28;65483;-40
2022/05/04 00:08:42;;;;;;;11.63;10.82;;;;;;;29.04;73.95;100805.41;5036121;28;70137;-40
2022/05/04 00:11:14;;;;;;;7.40;6.78;;;;;;;29.04;73.52;100800.00;5039052;28;66185;-41
2022/05/04 00:13:44;;;;;;;5.90;5.40;;;;;;;28.63;74.11;100738.94;5035494;28;69963;-40
2022/05/04 00:16:14;;;;;;;5.20;4.90;;;;;;;29.06;74.21;100809.56;5030722;28;66633;-41
2022/05/04 00:18:45;;;;;;;5.45;5.07;;;;;;;29.03;74.78;100809.09;5020891;28;69386;-39
2022/05/04 00:21:16;;;;;;;4.10;3.78;;;;;;;29.16;72.38;100819.91;5025303;28;66193;-37
2022/05/04 00:23:46;;;;;;;4.40;4.00;;;;;;;29.15;71.85;100802.88;5038207;28;71064;-37
2022/05/04 00:26:16;;;;;;;4.05;3.75;;;;;;;29.23;71.20;100809.94;5039594;28;66348;-38
2022/05/04 00:28:46;;;;;;;3.67;3.38;;;;;;;29.32;70.56;100810.53;5040852;28;70728;-39
2022/05/04 00:31:16;;;;;;;3.45;3.25;;;;;;;29.54;70.17;100833.56;5037306;28;65673;-39
2022/05/04 00:33:47;;;;;;;3.80;3.60;;;;;;;29.60;70.08;100843.50;5039078;28;70503;-38
2022/05/04 00:36:17;;;;;;;4.45;2.88;;;;;;;29.69;69.63;100835.19;5041185;28;66141;-38
2022/05/04 00:38:47;;;;;;;3.40;3.20;;;;;;;29.71;69.19;100825.00;5039386;28;69214;-39
2022/05/04 00:41:17;;;;;;;3.50;3.22;;;;;;;29.75;68.81;100828.94;5039262;28;66320;-38
2022/05/04 00:43:52;;;;;;;3.40;2.85;;;;;;;29.37;69.00;100762.09;5039703;28;69604;-38
2022/05/04 00:46:22;;;;;;;3.58;3.33;;;;;;;29.92;68.37;100843.66;5039291;28;66370;-37
2022/05/04 00:48:53;;;;;;;5.13;3.00;;;;;;;29.79;68.34;100820.19;5040887;28;69912;-37
2022/05/04 00:51:24;;;;;;;4.30;3.10;;;;;;;30.00;67.78;100847.97;5038968;28;66573;-38
2022/05/04 00:53:54;;;;;;;2.60;2.50;;;;;;;29.94;67.86;100838.00;5039717;28;69630;-38
2022/05/04 00:56:25;;;;;;;3.20;3.00;;;;;;;30.07;67.57;100856.88;5038020;28;66073;-39
2022/05/04 00:58:56;;;;;;;3.05;2.85;;;;;;;30.13;67.70;100863.31;5036777;28;70271;-39
2022/05/04 01:01:29;;;;;;;3.42;2.63;;;;;;;30.16;67.21;100866.41;5039759;28;66198;-39
2022/05/04 01:04:00;;;;;;;3.22;3.03;;;;;;;30.10;67.39;100848.34;5037558;28;68878;-38
2022/05/04 01:06:31;;;;;;;3.17;2.97;;;;;;;30.21;66.96;100858.47;5038362;28;65511;-38
2022/05/04 01:09:01;;;;;;;3.00;2.80;;;;;;;30.25;66.82;100867.84;5039893;28;69440;-38
2022/05/04 01:11:31;;;;;;;2.67;2.47;;;;;;;30.20;66.65;100853.25;5038467;28;65230;-42
2022/05/04 01:14:04;;;;;;;2.92;2.72;;;;;;;29.99;66.22;100813.84;5039343;28;70467;-39
2022/05/04 01:16:36;;;;;;;3.28;3.08;;;;;;;30.37;66.43;100878.81;5039856;28;66328;-39
2022/05/04 01:19:07;;;;;;;3.17;2.88;;;;;;;30.39;66.19;100876.72;5039788;28;70230;-39
2022/05/04 01:21:37;;;;;;;3.10;2.90;;;;;;;30.42;66.50;100875.44;5039558;28;66590;-39
2022/05/04 01:24:09;;;;;;;4.72;2.58;;;;;;;30.46;65.93;100868.56;5041369;28;69765;-38
2022/05/04 01:26:40;;;;;;;2.78;2.53;;;;;;;30.47;65.85;100881.03;5040668;28;66258;-38
2022/05/04 01:29:10;;;;;;;3.10;2.90;;;;;;;30.51;65.53;100874.16;5041194;28;70532;-38
2022/05/04 01:31:40;;;;;;;2.80;2.60;;;;;;;30.54;65.83;100876.44;5041817;28;65483;-39
2022/05/04 01:34:11;;;;;;;3.20;3.00;;;;;;;30.57;65.67;100884.13;5043358;28;72276;-37
2022/05/04 01:36:41;;;;;;;2.90;2.60;;;;;;;30.52;65.60;100878.53;5043321;28;67122;-38
2022/05/04 01:39:11;;;;;;;2.80;2.60;;;;;;;30.61;65.23;100885.31;5042949;28;69533;-38
2022/05/04 01:44:30;;;;;;;2.72;2.53;;;;;;;30.65;65.18;100881.16;5042532;28;69188;-38
2022/05/04 01:47:01;;;;;;;2.80;2.60;;;;;;;30.64;64.67;100875.94;5042064;28;66181;-38
2022/05/04 01:49:31;;;;;;;2.60;2.40;;;;;;;30.69;64.56;100879.66;5043487;28;70173;-38
2022/05/04 01:52:01;;;;;;;2.88;2.67;;;;;;;30.60;64.35;100864.72;5041939;28;64564;-39
2022/05/04 01:54:31;;;;;;;2.97;2.70;;;;;;;30.76;64.11;100879.63;5043194;28;69226;-37
2022/05/04 01:57:01;;;;;;;2.70;2.50;;;;;;;30.79;64.59;100889.19;5041735;28;66233;-38
2022/05/04 01:59:32;;;;;;;3.53;2.92;;;;;;;30.77;64.04;100877.72;5025025;28;69976;-37
2022/05/04 02:02:06;;;;;;;2.60;2.40;;;;;;;30.84;64.05;100881.22;5042334;28;65446;-38
2022/05/04 02:04:38;;;;;;;2.95;2.38;;;;;;;30.87;64.03;100887.06;5031102;28;70025;-38
2022/05/04 02:07:09;;;;;;;2.72;2.53;;;;;;;30.88;63.72;100882.47;5023005;28;66502;-38
2022/05/04 02:09:42;;;;;;;2.70;2.50;;;;;;;30.83;63.88;100874.16;5021485;28;43927;-38
2022/05/04 02:12:12;;;;;;;2.30;2.20;;;;;;;30.86;63.46;100868.31;5020772;28;66731;-39
2022/05/04 02:14:43;;;;;;;2.88;2.63;;;;;;;30.93;63.47;100885.34;5022309;28;69589;-39
2022/05/04 02:17:13;;;;;;;3.85;2.63;;;;;;;30.96;63.33;100874.06;5021997;28;67032;-39
2022/05/04 02:19:43;;;;;;;2.20;2.10;;;;;;;31.01;63.00;100882.38;5022762;28;69641;-38
2022/05/04 02:22:13;;;;;;;3.15;2.47;;;;;;;30.96;62.84;100865.94;5023268;28;66399;-38
2022/05/04 02:24:43;;;;;;;2.55;2.42;;;;;;;31.07;62.71;100881.47;5037133;28;70218;-38
2022/05/04 02:27:13;;;;;;;2.30;2.10;;;;;;;31.10;63.04;100869.38;5023060;28;65948;-40
2022/05/04 02:29:44;;;;;;;2.95;2.40;;;;;;;31.12;62.63;100870.81;5022465;28;70445;-38
2022/05/04 02:32:14;;;;;;;2.92;2.72;;;;;;;31.14;62.79;100871.38;5021556;28;65833;-38
2022/05/04 02:40:22;;;;;;;4.43;2.30;;;;;;;31.17;62.22;100859.28;5022697;28;69629;-38
2022/05/04 02:42:52;;;;;;;2.70;2.50;;;;;;;31.26;62.39;100871.50;5020727;28;66717;-38
2022/05/04 02:45:23;;;;;;;2.67;2.47;;;;;;;31.29;62.61;100870.25;5022375;28;69951;-38
2022/05/04 02:47:53;;;;;;;2.70;2.50;;;;;;;31.32;62.28;100877.91;5022161;28;66057;-38
2022/05/04 02:50:24;;;;;;;3.47;2.70;;;;;;;31.35;61.97;100872.06;5035996;28;68793;-38
2022/05/04 02:52:54;;;;;;;2.47;2.33;;;;;;;31.38;61.88;100868.91;5037486;28;65198;-38
2022/05/04 02:55:24;;;;;;;2.33;2.22;;;;;;;31.36;61.83;100857.47;5022317;28;69637;-38
2022/05/04 02:57:54;;;;;;;2.30;2.20;;;;;;;31.44;62.22;100870.72;5040247;28;66731;-37
2022/05/04 03:00:25;;;;;;;2.05;1.95;;;;;;;31.44;61.75;100864.47;5041972;28;69327;-38
2022/05/04 03:02:56;;;;;;;2.67;2.47;;;;;;;31.46;62.03;100879.47;5040791;28;65422;-38
2022/05/04 03:05:26;;;;;;;2.47;2.28;;;;;;;31.48;61.88;100866.53;5041573;28;70410;-38
2022/05/04 03:07:57;;;;;;;3.00;2.22;;;;;;;31.55;61.36;100866.44;5042418;28;66500;-38
2022/05/04 03:10:27;;;;;;;1.92;1.83;;;;;;;31.51;61.30;100857.94;5041493;28;69997;-38
2022/05/04 03:12:57;;;;;;;2.50;2.30;;;;;;;31.28;61.28;100822.50;5042509;28;65434;-38
2022/05/04 03:15:27;;;;;;;2.85;1.98;;;;;;;31.57;61.30;100853.50;5041961;28;69939;-38
2022/05/04 03:17:57;;;;;;;8.30;2.40;;;;;;;31.65;61.22;100864.06;5042136;28;65438;-38
2022/05/04 03:20:27;;;;;;;2.65;2.00;;;;;;;31.66;61.30;100862.16;5042383;28;70020;-38
2022/05/04 03:22:58;;;;;;;4.43;2.75;;;;;;;31.69;61.07;100867.13;5042570;28;65594;-39
2022/05/04 03:25:28;;;;;;;2.75;2.42;;;;;;;31.66;61.08;100851.31;5041770;28;70355;-37
2022/05/04 03:27:59;;;;;;;2.40;2.07;;;;;;;31.65;61.05;100847.78;5042376;28;66356;-38
2022/05/04 03:30:29;;;;;;;2.60;2.40;;;;;;;31.67;61.08;100847.53;5041070;28;70355;-37
2022/05/04 03:32:59;;;;;;;2.40;2.20;;;;;;;31.76;60.91;100852.44;5041019;28;65696;-38
2022/05/04 03:35:29;;;;;;;2.25;2.15;;;;;;;31.72;60.92;100845.81;5041887;28;69663;-37
2022/05/04 03:37:59;;;;;;;2.20;2.10;;;;;;;31.70;60.63;100836.22;5041881;28;66014;-38
2022/05/04 03:40:30;;;;;;;2.53;2.33;;;;;;;31.73;60.63;100843.91;5040133;28;69738;-38
2022/05/04 03:43:00;;;;;;;2.15;2.05;;;;;;;31.67;60.72;100825.84;5041639;28;66038;-37
2022/05/04 03:45:30;;;;;;;2.67;2.30;;;;;;;31.78;60.42;100844.06;5040124;28;69122;-38
2022/05/04 03:48:01;;;;;;;2.30;2.15;;;;;;;31.84;60.75;100848.56;5039180;28;66501;-38
2022/05/04 03:50:31;;;;;;;2.17;2.08;;;;;;;31.85;61.03;100839.41;5041388;28;70184;-38
2022/05/04 03:53:01;;;;;;;2.78;2.58;;;;;;;31.82;60.51;100834.44;5041657;28;65883;-39
2022/05/04 03:55:33;;;;;;;2.72;2.53;;;;;;;31.87;60.74;100844.56;5039845;28;70472;-37
2022/05/04 03:58:04;;;;;;;3.00;2.80;;;;;;;31.90;60.69;100853.09;5039424;28;65990;-40
2022/05/04 04:00:34;;;;;;;2.22;2.13;;;;;;;31.87;60.41;100831.84;5040805;28;69554;-39
2022/05/04 04:03:04;;;;;;;2.30;2.10;;;;;;;31.84;60.58;100826.88;5039456;28;66292;-38
2022/05/04 04:05:34;;;;;;;2.78;2.58;;;;;;;31.87;60.67;100820.97;5039846;28;69180;-38
2022/05/04 04:08:04;;;;;;;2.58;2.38;;;;;;;31.82;60.34;100810.03;5040336;28;66339;-38
2022/05/04 04:10:34;;;;;;;2.60;2.40;;;;;;;31.60;60.48;100780.66;5038924;28;70116;-38
2022/05/04 04:13:06;;;;;;;3.00;2.72;;;;;;;31.87;60.37;100822.88;5040710;28;66603;-37
2022/05/04 04:15:36;;;;;;;3.67;2.60;;;;;;;31.96;60.70;100825.09;5039905;28;70255;-38
2022/05/04 04:18:07;;;;;;;2.60;2.45;;;;;;;32.00;60.28;100833.59;5038842;28;66612;-37
2022/05/04 04:23:27;;;;;;;2.83;2.63;;;;;;;31.86;60.37;100803.06;5039234;28;66418;-38
2022/05/04 04:25:57;;;;;;;2.67;2.47;;;;;;;32.02;60.30;100829.59;5040795;28;69497;-38
2022/05/04 04:28:28;;;;;;;3.10;2.90;;;;;;;31.65;60.16;100768.28;5040353;28;66348;-39
2022/05/04 04:30:58;;;;;;;2.78;2.60;;;;;;;32.09;60.26;100836.81;5040297;28;70729;-38
2022/05/04 04:33:29;;;;;;;3.10;2.90;;;;;;;32.11;60.19;100834.72;5040953;28;66043;-40
2022/05/04 04:36:00;;;;;;;2.90;2.70;;;;;;;31.98;60.26;100812.13;5040702;28;69433;-39
2022/05/04 04:38:31;;;;;;;2.80;2.60;;;;;;;31.89;60.12;100791.75;5040649;28;66081;-38
2022/05/04 04:41:02;;;;;;;2.80;2.60;;;;;;;32.11;60.18;100821.97;5022575;28;69868;-38
2022/05/04 04:43:32;;;;;;;3.00;2.80;;;;;;;32.10;60.06;100808.63;5040006;28;66241;-37
2022/05/04 04:46:02;;;;;;;2.88;2.67;;;;;;;32.20;60.14;100825.16;5040439;28;69945;-38
2022/05/04 04:48:32;;;;;;;3.40;3.10;;;;;;;32.20;59.97;100819.75;5040084;28;66686;-37
2022/05/04 04:51:02;;;;;;;3.35;2.40;;;;;;;32.17;59.94;100803.94;5039558;28;70604;-38
2022/05/04 04:53:33;;;;;;;2.72;2.60;;;;;;;32.17;59.81;100799.31;5039897;28;66206;-38
2022/05/04 04:56:03;;;;;;;2.72;2.53;;;;;;;32.24;59.83;100807.38;5039695;28;69714;-37
2022/05/04 04:58:33;;;;;;;3.20;2.90;;;;;;;32.20;59.77;100796.13;5053607;28;66533;-37
2022/05/04 05:01:03;;;;;;;2.45;2.35;;;;;;;32.26;59.86;100802.53;5040118;28;70334;-39
2022/05/04 05:03:33;;;;;;;2.92;2.67;;;;;;;31.76;59.28;100715.97;5039728;28;66014;-38
2022/05/04 05:06:04;;;;;;;3.25;2.95;;;;;;;32.29;59.59;100796.66;5039265;28;70524;-38
2022/05/04 05:08:34;;;;;;;5.40;2.80;;;;;;;32.30;59.67;100786.63;5040641;28;65864;-37
2022/05/04 05:11:04;;;;;;;3.67;3.20;;;;;;;32.30;59.36;100792.88;5040229;28;70130;-38
2022/05/04 05:16:06;;;;;;;3.42;3.22;;;;;;;32.31;59.81;100783.66;5039222;28;65735;-37
2022/05/04 05:16:24;;;;;;;4.07;3.78;;;;;;;31.96;60.07;100727.44;5040060;28;70160;-38
2022/05/04 05:18:55;;;;;;;3.75;3.55;;;;;;;32.33;59.81;100772.59;5039164;28;65714;-38
2022/05/04 05:21:25;;;;;;;3.88;3.58;;;;;;;32.30;59.85;100763.03;5040312;28;70043;-38
2022/05/04 05:23:55;;;;;;;4.50;4.10;;;;;;;32.26;59.81;100745.53;5040481;28;66383;-39
2022/05/04 05:26:25;;;;;;;3.65;3.45;;;;;;;32.37;60.27;100747.44;5039303;28;70651;-38
2022/05/04 05:28:56;;;;;;;3.50;3.30;;;;;;;32.37;59.80;100746.63;5036990;28;65784;-38
2022/05/04 05:31:26;;;;;;;3.88;3.67;;;;;;;32.26;59.55;100712.97;5032679;28;69576;-38
2022/05/04 05:33:56;;;;;;;4.85;3.50;;;;;;;32.37;59.86;100727.63;5037137;28;65512;-38
2022/05/04 05:36:27;;;;;;;4.55;3.90;;;;;;;32.38;59.56;100724.69;5010373;28;68355;-37
2022/05/04 05:38:57;;;;;;;3.72;3.42;;;;;;;32.39;59.47;100720.06;5039468;28;66560;-37
2022/05/04 05:41:27;;;;;;;3.58;3.38;;;;;;;32.30;59.41;100703.31;5036682;28;70194;-37
2022/05/04 05:43:57;;;;;;;4.00;3.70;;;;;;;32.41;59.60;100724.22;5038834;28;66127;-38
2022/05/04 05:46:29;;;;;;;3.50;3.30;;;;;;;32.30;59.61;100699.78;5038859;28;70707;-37
2022/05/04 05:48:59;;;;;;;4.03;3.63;;;;;;;32.30;59.79;100695.16;5037910;28;66162;-38
2022/05/04 05:51:29;;;;;;;4.00;3.70;;;;;;;32.39;59.69;100710.03;5038016;28;70238;-38
2022/05/04 05:53:59;;;;;;;3.80;3.60;;;;;;;32.38;59.18;100704.84;5039285;28;66238;-38
2022/05/04 05:56:30;;;;;;;4.25;3.95;;;;;;;32.31;59.52;100685.94;5037338;28;69970;-38
2022/05/04 05:59:00;;;;;;;4.13;3.75;;;;;;;32.38;59.62;100692.09;5039126;28;65425;-38
2022/05/04 06:01:30;;;;;;;4.18;3.88;;;;;;;32.31;59.34;100672.38;5038640;28;70543;-38
2022/05/04 06:04:00;;;;;;;4.00;3.70;;;;;;;32.18;59.33;100642.75;5037593;28;66905;-37
2022/05/04 06:06:31;;;;;;;3.70;3.40;;;;;;;32.29;59.67;100658.22;5038863;28;69646;-37
2022/05/04 06:09:01;;;;;;;4.25;3.85;;;;;;;32.35;59.36;100665.44;5035815;28;65725;-37
2022/05/04 06:11:31;;;;;;;4.40;4.10;;;;;;;32.12;57.86;100670.81;5030479;28;70062;-38
2022/05/04 06:14:02;;;;;;;3.60;3.40;;;;;;;31.89;56.38;100680.53;5037926;28;65598;-37
2022/05/04 06:16:33;;;;;;;4.10;3.80;;;;;;;31.57;55.33;100659.13;5037770;28;69795;-37
2022/05/04 06:19:04;;;;;;;6.00;3.75;;;;;;;31.42;54.33;100666.81;5036217;28;66907;-41
2022/05/04 06:21:34;;;;;;;3.75;3.45;;;;;;;30.84;53.59;100592.31;5024052;28;70100;-37
2022/05/04 06:24:04;;;;;;;3.97;3.67;;;;;;;31.02;52.87;100648.34;5036811;28;66540;-38
2022/05/04 06:26:35;;;;;;;3.90;3.60;;;;;;;31.04;52.20;100665.19;5036455;28;70477;-36
2022/05/04 06:29:05;;;;;;;4.00;3.70;;;;;;;30.92;51.46;100667.84;5034929;28;65975;-37
2022/05/04 06:34:25;;;;;;;4.05;3.72;;;;;;;30.72;50.00;100650.94;5035130;28;66686;-37
2022/05/04 06:36:55;;;;;;;4.80;3.40;;;;;;;30.51;49.61;100638.66;5023280;28;69942;-37
2022/05/04 06:39:26;;;;;;;3.40;3.20;;;;;;;30.55;48.99;100650.69;5022441;28;65987;-37
2022/05/04 06:41:56;;;;;;;3.53;3.22;;;;;;;30.40;48.24;100631.28;5022716;28;70416;-36
2022/05/04 06:44:26;;;;;;;3.60;3.30;;;;;;;30.38;48.61;100630.69;5020975;28;66119;-38
2022/05/04 06:46:57;;;;;;;3.72;3.42;;;;;;;30.32;47.87;100623.44;5021847;28;71509;-38
2022/05/04 06:49:27;;;;;;;4.05;3.13;;;;;;;30.29;47.83;100630.13;5022724;28;65860;-38
2022/05/04 06:51:57;;;;;;;4.22;3.35;;;;;;;30.17;46.95;100615.63;5020406;28;70088;-37
2022/05/04 06:54:27;;;;;;;3.60;3.30;;;;;;;30.18;47.30;100615.41;5022774;28;65757;-36
2022/05/04 06:56:58;;;;;;;2.97;2.78;;;;;;;30.14;46.90;100611.50;5048583;28;68476;-36
2022/05/04 06:59:28;;;;;;;3.97;3.08;;;;;;;29.89;45.63;100602.56;5031760;28;66198;-36
2022/05/04 07:01:58;;;;;;;2.83;2.63;;;;;;;30.10;45.79;100623.00;5032156;28;70482;-37
2022/05/04 07:04:29;;;;;;;5.03;2.65;;;;;;;30.05;45.63;100618.22;5035451;28;65991;-37
2022/05/04 07:06:59;;;;;;;3.30;3.10;;;;;;;30.04;45.19;100613.88;5030614;28;70549;-38
2022/05/04 07:09:29;;;;;;;3.50;3.20;;;;;;;29.74;45.17;100573.16;5035499;28;65639;-37
2022/05/04 07:12:00;;;;;;;4.47;3.03;;;;;;;29.78;45.07;100575.19;5033833;28;70316;-38
2022/05/04 07:14:30;;;;;;;3.05;2.75;;;;;;;29.94;44.79;100600.03;5034129;28;66060;-38
2022/05/04 07:17:00;;;;;;;2.83;2.63;;;;;;;29.99;44.55;100608.31;5030929;28;70214;-37
2022/05/04 07:19:31;;;;;;;2.75;2.55;;;;;;;30.06;44.21;100603.66;5034476;28;66515;-37
2022/05/04 07:22:01;;;;;;;3.03;2.70;;;;;;;29.99;44.11;100592.06;5026612;28;70344;-37
2022/05/04 07:24:31;;;;;;;2.88;2.50;;;;;;;29.96;43.81;100573.59;5029673;28;66333;-37
2022/05/04 07:27:02;;;;;;;2.90;2.70;;;;;;;29.98;43.70;100579.63;5035709;28;70245;-38
2022/05/04 07:29:33;;;;;;;4.22;3.10;;;;;;;30.15;48.92;100580.69;5034809;28;66676;-39
2022/05/04 07:32:04;;;;;;;3.63;3.42;;;;;;;30.37;54.80;100578.44;5028904;28;68922;-39
2022/05/04 07:34:35;;;;;;;4.20;4.00;;;;;;;30.55;57.62;100574.91;5026232;28;64801;-38
2022/05/04 07:37:05;;;;;;;4.22;3.92;;;;;;;30.68;58.52;100553.09;5025436;28;69643;-38
2022/05/04 07:42:24;;;;;;;4.68;4.18;;;;;;;31.00;60.40;100549.38;5028789;28;70345;-37
2022/05/04 07:44:59;;;;;;;4.38;4.05;;;;;;;31.23;61.17;100548.63;5037421;28;66457;-38
2022/05/04 07:47:31;;;;;;;4.40;4.10;;;;;;;31.37;61.37;100560.97;5029898;28;70290;-37
2022/05/04 07:50:04;;;;;;;16.33;3.92;;;;;;;31.46;61.54;100553.34;5026378;28;66491;-39
2022/05/04 07:52:34;;;;;;;3.72;3.53;;;;;;;31.56;60.63;100535.44;5020590;28;69384;-39
2022/05/04 07:55:05;;;;;;;3.20;2.95;;;;;;;31.74;60.04;100533.72;5019678;28;66022;-39
2022/05/04 07:57:36;;;;;;;4.43;3.00;;;;;;;31.75;60.03;100517.19;5034785;28;70260;-39
2022/05/04 08:05:44;;;;;;;4.88;3.50;;;;;;;32.17;60.30;100543.41;5020330;28;65155;-39
2022/05/04 08:08:14;;;;;;;3.78;3.58;;;;;;;32.05;60.57;100500.81;5020160;28;69500;-39
2022/05/04 08:10:44;;;;;;;4.10;3.50;;;;;;;32.26;60.67;100531.97;5019305;28;65638;-38
2022/05/04 08:13:15;;;;;;;4.45;3.58;;;;;;;32.35;60.35;100529.69;5019414;28;70012;-39
2022/05/04 08:15:46;;;;;;;3.97;3.63;;;;;;;32.19;60.73;100497.88;5020944;28;66289;-38
2022/05/04 08:18:16;;;;;;;4.43;4.05;;;;;;;32.35;60.65;100518.84;5021821;28;70495;-38
2022/05/04 08:20:47;;;;;;;4.20;3.90;;;;;;;32.34;60.69;100506.31;5018272;28;65088;-39
2022/05/04 08:23:17;;;;;;;4.40;4.10;;;;;;;32.45;60.74;100513.59;5020541;28;69863;-39
2022/05/04 08:25:49;;;;;;;4.90;4.50;;;;;;;32.44;61.06;100505.72;5019331;28;65181;-39
2022/05/04 08:28:19;;;;;;;6.95;4.28;;;;;;;32.55;61.00;100520.38;5025003;28;68537;-39
2022/05/04 08:30:50;;;;;;;7.70;4.65;;;;;;;32.62;60.82;100535.44;5040206;28;66444;-39
2022/05/04 08:33:20;;;;;;;11.82;5.00;;;;;;;32.49;61.12;100514.81;5039614;28;70092;-39
2022/05/04 08:35:50;;;;;;;8.48;4.38;;;;;;;32.59;61.21;100529.66;5020152;28;64525;-39
2022/05/04 08:38:22;;;;;;;7.65;4.70;;;;;;;32.64;61.30;100532.50;5037106;28;68776;-39
2022/05/04 08:40:56;;;;;;;10.07;5.03;;;;;;;32.59;61.30;100525.06;5039429;28;66064;-39
2022/05/04 08:43:27;;;;;;;17.08;6.25;;;;;;;32.36;61.25;100496.06;5038924;28;70382;-38
2022/05/04 08:46:00;;;;;;;13.02;5.65;;;;;;;32.44;61.24;100489.44;5037904;28;66346;-39
2022/05/04 08:48:32;;;;;;;12.15;6.07;;;;;;;32.71;61.25;100533.19;5036869;28;69957;-38
2022/05/04 08:51:05;;;;;;;9.02;6.00;;;;;;;32.78;61.36;100549.34;5038560;28;66253;-39
2022/05/04 08:53:37;;;;;;;12.10;6.03;;;;;;;32.66;61.50;100527.66;5038201;28;70649;-39
2022/05/04 08:56:07;;;;;;;10.73;6.03;;;;;;;32.78;61.95;100547.44;5038317;28;66369;-39
2022/05/04 08:58:37;;;;;;;10.70;6.53;;;;;;;32.66;61.64;100530.38;5040279;28;70216;-40
2022/05/04 09:01:08;;;;;;;12.43;6.75;;;;;;;32.56;61.77;100517.41;5039918;28;65209;-40
2022/05/04 09:03:38;;;;;;;14.85;6.35;;;;;;;32.83;61.82;100563.03;5038608;28;70447;-39
2022/05/04 09:06:09;;;;;;;14.93;6.53;;;;;;;32.57;61.75;100531.78;5039372;28;65893;-39
2022/05/04 09:08:59;;;;;;;10.20;7.07;;;;;;;32.84;61.82;100576.34;5038460;28;68487;-39
2022/05/04 09:11:32;;;;;;;14.63;7.13;;;;;;;32.69;62.10;100578.78;5040457;28;66004;-39
2022/05/04 09:14:14;;;;;;;11.07;8.30;;;;;;;32.67;62.34;100570.03;5039906;28;69924;-39
2022/05/04 09:16:44;;;;;;;;;;;;;;;32.55;63.16;100599.09;5038024;28;66092;-39
2022/05/04 09:19:21;;;;;;;12.75;6.85;;;;;;;32.83;62.30;100596.44;5039888;28;70552;-39
2022/05/04 09:21:52;;;;;;;12.02;7.80;;;;;;;32.85;62.47;100594.31;5037517;28;64154;-39
2022/05/04 09:24:27;;;;;;;8.77;6.97;;;;;;;32.87;62.69;100596.78;5038067;28;69221;-39
2022/05/04 09:26:58;;;;;;;9.02;7.82;;;;;;;32.81;62.53;100587.69;5039467;28;66513;-38
2022/05/04 09:29:35;;;;;;;12.38;7.80;;;;;;;32.87;62.92;100613.91;5039699;28;70278;-39
2022/05/04 09:32:15;;;;;;;10.23;8.13;;;;;;;32.74;62.82;100592.47;5040314;28;66924;-39
2022/05/04 09:34:54;;;;;;;10.90;8.13;;;;;;;32.42;62.79;100552.09;5039453;28;69625;-38
2022/05/04 09:45:57;;;;;;;9.95;7.95;;;;;;;32.74;62.97;100625.06;5043697;28;70110;-38
2022/05/04 09:48:32;;;;;;;13.50;8.23;;;;;;;32.82;63.07;100643.69;5040805;28;66328;-39
2022/05/04 09:51:09;;;;;;;11.25;8.52;;;;;;;32.43;63.17;100596.34;5043161;28;70400;-38
2022/05/04 09:53:39;;;;;;;9.55;8.75;;;;;;;32.65;62.97;100642.75;5042405;28;63929;-39
2022/05/04 09:56:09;;;;;;;11.95;8.57;;;;;;;32.65;63.38;100648.19;5041883;28;69383;-38
2022/05/04 09:58:40;;;;;;;9.45;8.57;;;;;;;32.59;63.51;100633.69;5041828;28;64223;-38
2022/05/04 10:01:11;;;;;;;10.93;8.77;;;;;;;32.68;63.64;100659.44;5042486;28;68991;-38
2022/05/04 10:03:41;;;;;;;8.13;7.47;;;;;;;32.54;63.58;100647.16;5041867;28;66765;-39
2022/05/04 10:06:13;;;;;;;11.05;7.28;;;;;;;32.67;63.71;100678.66;5042928;28;69655;-38
2022/05/04 10:08:43;;;;;;;9.23;8.15;;;;;;;32.62;63.82;100671.22;5041217;28;65587;-38
2022/05/04 10:11:14;;;;;;;10.27;7.22;;;;;;;32.63;63.63;100677.50;5042509;28;70367;-38
2022/05/04 10:13:45;;;;;;;9.52;7.78;;;;;;;32.76;63.68;100707.09;5042189;28;65882;-38
2022/05/04 10:16:16;;;;;;;12.88;7.18;;;;;;;32.61;63.68;100701.34;5042233;28;70304;-38
2022/05/04 10:18:49;;;;;;;6.95;6.45;;;;;;;32.33;63.98;100672.16;5042646;28;66667;-38
2022/05/04 10:21:19;;;;;;;7.85;7.00;;;;;;;32.60;64.00;100700.53;5041971;28;70626;-39
2022/05/04 10:23:59;;;;;;;7.10;6.22;;;;;;;32.17;63.84;100627.53;5039473;28;66090;-39
2022/05/04 10:26:39;;;;;;;7.03;6.32;;;;;;;32.43;64.06;100678.66;5035671;28;70079;-39
2022/05/04 10:32:37;;;;;;;6.93;5.85;;;;;;;32.21;63.69;100664.00;5044003;28;69959;-40
2022/05/04 10:35:20;;;;;;;6.50;5.90;;;;;;;32.41;64.06;100697.06;5056827;28;66433;-40
2022/05/04 10:37:59;;;;;;;11.57;5.57;;;;;;;32.50;63.87;100716.56;5047858;28;69483;-39
2022/05/04 10:40:43;;;;;;;7.95;5.93;;;;;;;32.40;64.06;100706.28;5044225;28;65536;-39
2022/05/04 10:43:18;;;;;;;7.25;6.00;;;;;;;32.56;64.48;100736.53;5024708;28;68722;-38
2022/05/04 10:45:49;;;;;;;6.60;6.03;;;;;;;31.96;65.35;100656.88;5024448;28;66123;-38
2022/05/04 10:48:19;;;;;;;5.30;5.00;;;;;;;32.37;65.37;100733.88;5031074;28;71443;-39
2022/05/04 10:51:18;;;;;;;5.88;5.35;;;;;;;32.08;66.00;100718.50;5035285;28;66111;-38
2022/05/04 10:53:57;;;;;;;7.28;4.60;;;;;;;32.15;66.08;100730.06;5050890;28;69881;-39
2022/05/04 10:56:34;;;;;;;9.30;4.68;;;;;;;32.18;65.65;100756.72;5054684;28;66490;-38
2022/05/04 10:59:04;;;;;;;4.97;4.47;;;;;;;32.12;66.27;100774.75;5039611;28;69261;-39
2022/05/04 11:01:37;;;;;;;5.05;4.50;;;;;;;31.33;66.55;100660.03;5023874;28;65223;-38
2022/05/04 11:04:07;;;;;;;5.05;4.65;;;;;;;32.09;66.93;100791.50;5042160;28;69214;-38
2022/05/04 11:06:39;;;;;;;10.32;4.60;;;;;;;31.71;67.34;100729.44;5040066;28;66653;-38
2022/05/04 11:09:21;;;;;;;9.02;4.95;;;;;;;31.92;67.78;100775.03;5041830;28;70344;-38
2022/05/04 11:11:56;;;;;;;12.38;5.50;;;;;;;31.98;67.49;100779.56;5041060;28;65974;-39
2022/05/04 11:14:27;;;;;;;5.72;4.28;;;;;;;31.93;67.56;100782.16;5036339;28;70545;-38
2022/05/04 11:16:58;;;;;;;5.20;4.80;;;;;;;31.82;67.79;100769.34;5038702;28;65993;-39
2022/05/04 11:19:32;;;;;;;4.45;4.15;;;;;;;31.26;67.91;100686.38;5039898;28;70156;-39
2022/05/04 11:22:02;;;;;;;5.78;4.43;;;;;;;31.92;67.55;100801.34;5041320;28;66453;-38
2022/05/04 11:24:33;;;;;;;5.47;4.55;;;;;;;31.96;67.76;100814.25;5041677;28;69387;-39
2022/05/04 11:27:04;;;;;;;5.03;4.18;;;;;;;31.85;67.90;100796.00;5038740;28;66537;-39
2022/05/04 11:29:34;;;;;;;9.15;4.63;;;;;;;31.75;67.82;100784.84;5049094;28;70152;-38
2022/05/04 11:32:06;;;;;;;4.82;4.43;;;;;;;31.81;67.80;100811.06;5061473;28;65234;-39
2022/05/04 11:34:37;;;;;;;;;;;;;;;31.63;69.45;100836.31;5055474;28;70755;-39
2022/05/04 11:37:11;;;;;;;6.55;5.95;;;;;;;31.47;68.30;100774.56;5041074;28;64286;-38
2022/05/04 11:39:42;;;;;;;6.55;5.53;;;;;;;31.90;68.07;100853.09;5039908;28;69859;-39
2022/05/04 11:42:13;;;;;;;5.40;5.00;;;;;;;31.57;68.44;100810.94;5049067;28;66363;-39
2022/05/04 11:44:47;;;;;;;6.28;5.68;;;;;;;31.87;68.52;100853.53;5038372;28;69446;-38
2022/05/04 11:47:19;;;;;;;6.28;5.78;;;;;;;31.89;68.34;100850.59;5035220;28;66056;-39
2022/05/04 11:49:49;;;;;;;5.97;5.47;;;;;;;31.56;68.91;100801.13;5033472;28;69767;-39
2022/05/04 11:52:21;;;;;;;7.27;4.80;;;;;;;31.72;68.57;100824.09;5033530;28;65250;-38
2022/05/04 11:54:52;;;;;;;5.03;4.63;;;;;;;31.86;68.50;100841.03;5032999;28;71525;-38
2022/05/04 11:57:22;;;;;;;5.72;5.00;;;;;;;31.89;68.08;100839.75;5030718;28;65717;-39
2022/05/04 11:59:53;;;;;;;4.72;4.43;;;;;;;31.93;67.64;100852.69;5059279;28;69661;-39
2022/05/04 12:02:24;;;;;;;5.75;4.05;;;;;;;32.00;67.41;100872.41;5053778;28;64615;-39
2022/05/04 12:04:54;;;;;;;5.20;4.90;;;;;;;32.05;67.28;100880.69;5032669;28;69864;-39
2022/05/04 12:07:27;;;;;;;5.22;4.93;;;;;;;32.13;66.99;100884.16;5007678;28;66259;-39
2022/05/04 12:09:57;;;;;;;5.00;4.70;;;;;;;32.16;66.66;100884.53;5040797;28;70749;-38
2022/05/04 12:12:30;;;;;;;5.70;5.40;;;;;;;31.85;66.68;100828.53;5053663;28;65734;-39
2022/05/04 12:15:05;;;;;;;6.53;6.03;;;;;;;32.21;66.50;100898.22;5059807;28;70413;-39
2022/05/04 12:17:36;;;;;;;6.90;6.22;;;;;;;32.21;66.44;100887.38;5060784;28;65330;-40